sensor_id;sensor_type;location;lat;lon;timestamp;P1;durP1;ratioP1;P2;durP2;ratioP2
14858;SDS011;7521;51.700;6.874;2023-06-26T00:01:20;11.07;;;9.88;;
14858;SDS011;7521;51.700;6.874;2023-06-26T00:04:25;12.70;;;9.83;;
14858;SDS011;7521;51.700;6.874;2023-06-26T00:07:31;15.65;;;10.48;;
14858;SDS011;7521;51.700;6.874;2023-06-26T00:10:39;10.57;;;9.57;;
14858;SDS011;7521;51.700;6.874;2023-06-26T00:13:44;10.88;;;9.77;;
14858;SDS011;7521;51.700;6.874;2023-06-26T00:16:49;10.63;;;9.43;;
14858;SDS011;7521;51.700;6.874;2023-06-26T00:19:54;9.05;;;8.25;;
14858;SDS011;7521;51.700;6.874;2023-06-26T00:23:00;10.95;;;9.85;;
14858;SDS011;7521;51.700;6.874;2023-06-26T00:26:05;9.93;;;8.50;;
14858;SDS011;7521;51.700;6.874;2023-06-26T00:29:10;9.77;;;8.80;;
14858;SDS011;7521;51.700;6.874;2023-06-26T00:32:15;9.37;;;8.47;;
14858;SDS011;7521;51.700;6.874;2023-06-26T00:35:20;10.37;;;9.20;;
14858;SDS011;7521;51.700;6.874;2023-06-26T00:38:26;11.32;;;9.30;;
14858;SDS011;7521;51.700;6.874;2023-06-26T00:41:31;9.43;;;8.53;;
14858;SDS011;7521;51.700;6.874;2023-06-26T00:44:36;11.63;;;8.83;;
14858;SDS011;7521;51.700;6.874;2023-06-26T00:47:41;10.00;;;9.00;;
14858;SDS011;7521;51.700;6.874;2023-06-26T00:50:46;11.83;;;9.03;;
14858;SDS011;7521;51.700;6.874;2023-06-26T00:53:52;10.57;;;9.47;;
14858;SDS011;7521;51.700;6.874;2023-06-26T00:56:57;11.03;;;8.47;;
14858;SDS011;7521;51.700;6.874;2023-06-26T01:00:02;10.57;;;8.93;;
14858;SDS011;7521;51.700;6.874;2023-06-26T01:03:08;9.47;;;8.53;;
14858;SDS011;7521;51.700;6.874;2023-06-26T01:06:14;11.60;;;8.53;;
14858;SDS011;7521;51.700;6.874;2023-06-26T01:09:19;11.47;;;8.17;;
14858;SDS011;7521;51.700;6.874;2023-06-26T01:12:25;8.83;;;8.13;;
14858;SDS011;7521;51.700;6.874;2023-06-26T01:15:30;8.90;;;8.10;;
14858;SDS011;7521;51.700;6.874;2023-06-26T01:18:35;9.20;;;8.27;;
14858;SDS011;7521;51.700;6.874;2023-06-26T01:21:43;9.00;;;8.20;;
14858;SDS011;7521;51.700;6.874;2023-06-26T01:28:06;9.20;;;8.30;;
14858;SDS011;7521;51.700;6.874;2023-06-26T01:31:12;9.53;;;8.50;;
14858;SDS011;7521;51.700;6.874;2023-06-26T01:34:18;9.17;;;8.27;;
14858;SDS011;7521;51.700;6.874;2023-06-26T01:37:23;8.67;;;7.80;;
14858;SDS011;7521;51.700;6.874;2023-06-26T01:40:28;8.20;;;7.40;;
14858;SDS011;7521;51.700;6.874;2023-06-26T01:46:44;9.93;;;7.73;;
14858;SDS011;7521;51.700;6.874;2023-06-26T01:49:57;7.73;;;7.03;;
14858;SDS011;7521;51.700;6.874;2023-06-26T01:53:08;7.83;;;7.13;;
14858;SDS011;7521;51.700;6.874;2023-06-26T01:56:16;8.27;;;7.50;;
14858;SDS011;7521;51.700;6.874;2023-06-26T01:59:23;8.60;;;7.67;;
14858;SDS011;7521;51.700;6.874;2023-06-26T02:02:30;8.50;;;7.70;;
14858;SDS011;7521;51.700;6.874;2023-06-26T02:05:35;8.83;;;7.93;;
14858;SDS011;7521;51.700;6.874;2023-06-26T02:08:41;8.40;;;7.60;;
14858;SDS011;7521;51.700;6.874;2023-06-26T02:11:46;8.87;;;7.97;;
14858;SDS011;7521;51.700;6.874;2023-06-26T02:14:52;8.17;;;7.37;;
14858;SDS011;7521;51.700;6.874;2023-06-26T02:17:57;8.20;;;7.40;;
14858;SDS011;7521;51.700;6.874;2023-06-26T02:21:03;8.23;;;7.43;;
14858;SDS011;7521;51.700;6.874;2023-06-26T02:24:08;7.70;;;7.00;;
14858;SDS011;7521;51.700;6.874;2023-06-26T02:27:14;8.40;;;7.60;;
14858;SDS011;7521;51.700;6.874;2023-06-26T02:30:20;8.03;;;6.90;;
14858;SDS011;7521;51.700;6.874;2023-06-26T02:33:25;8.07;;;7.23;;
14858;SDS011;7521;51.700;6.874;2023-06-26T02:36:30;7.70;;;7.00;;
14858;SDS011;7521;51.700;6.874;2023-06-26T02:39:35;7.83;;;7.10;;
14858;SDS011;7521;51.700;6.874;2023-06-26T02:42:41;10.07;;;7.10;;
14858;SDS011;7521;51.700;6.874;2023-06-26T02:45:46;8.57;;;7.73;;
14858;SDS011;7521;51.700;6.874;2023-06-26T02:48:51;8.85;;;7.05;;
14858;SDS011;7521;51.700;6.874;2023-06-26T02:51:56;10.70;;;7.90;;
14858;SDS011;7521;51.700;6.874;2023-06-26T02:55:02;7.53;;;6.83;;
14858;SDS011;7521;51.700;6.874;2023-06-26T02:58:08;8.03;;;7.13;;
14858;SDS011;7521;51.700;6.874;2023-06-26T03:01:13;7.73;;;6.90;;
14858;SDS011;7521;51.700;6.874;2023-06-26T03:04:18;9.70;;;7.20;;
14858;SDS011;7521;51.700;6.874;2023-06-26T03:07:26;8.83;;;7.33;;
14858;SDS011;7521;51.700;6.874;2023-06-26T03:10:31;11.07;;;7.47;;
14858;SDS011;7521;51.700;6.874;2023-06-26T03:13:36;8.00;;;7.20;;
14858;SDS011;7521;51.700;6.874;2023-06-26T03:16:41;13.30;;;7.90;;
14858;SDS011;7521;51.700;6.874;2023-06-26T03:19:47;9.10;;;8.20;;
14858;SDS011;7521;51.700;6.874;2023-06-26T03:22:52;11.40;;;8.83;;
14858;SDS011;7521;51.700;6.874;2023-06-26T03:25:57;12.43;;;8.25;;
14858;SDS011;7521;51.700;6.874;2023-06-26T03:29:02;10.33;;;8.33;;
14858;SDS011;7521;51.700;6.874;2023-06-26T03:32:08;9.63;;;8.63;;
14858;SDS011;7521;51.700;6.874;2023-06-26T03:35:13;9.83;;;8.83;;
14858;SDS011;7521;51.700;6.874;2023-06-26T03:38:18;14.93;;;8.90;;
14858;SDS011;7521;51.700;6.874;2023-06-26T03:41:24;8.77;;;7.87;;
14858;SDS011;7521;51.700;6.874;2023-06-26T03:44:29;10.50;;;7.93;;
14858;SDS011;7521;51.700;6.874;2023-06-26T03:47:34;9.10;;;8.20;;
14858;SDS011;7521;51.700;6.874;2023-06-26T03:50:39;10.00;;;8.40;;
14858;SDS011;7521;51.700;6.874;2023-06-26T03:53:44;9.25;;;7.32;;
14858;SDS011;7521;51.700;6.874;2023-06-26T03:56:50;10.67;;;8.43;;
14858;SDS011;7521;51.700;6.874;2023-06-26T03:59:55;9.70;;;7.40;;
14858;SDS011;7521;51.700;6.874;2023-06-26T04:03:00;10.13;;;8.17;;
14858;SDS011;7521;51.700;6.874;2023-06-26T04:06:05;11.10;;;7.60;;
14858;SDS011;7521;51.700;6.874;2023-06-26T04:09:11;7.93;;;7.10;;
14858;SDS011;7521;51.700;6.874;2023-06-26T04:12:16;8.60;;;7.70;;
14858;SDS011;7521;51.700;6.874;2023-06-26T04:15:21;10.17;;;8.23;;
14858;SDS011;7521;51.700;6.874;2023-06-26T04:18:26;9.97;;;7.83;;
14858;SDS011;7521;51.700;6.874;2023-06-26T04:21:32;8.43;;;7.63;;
14858;SDS011;7521;51.700;6.874;2023-06-26T04:24:37;13.30;;;7.95;;
14858;SDS011;7521;51.700;6.874;2023-06-26T04:27:42;8.02;;;6.45;;
14858;SDS011;7521;51.700;6.874;2023-06-26T04:30:47;8.30;;;6.17;;
14858;SDS011;7521;51.700;6.874;2023-06-26T04:33:52;8.50;;;6.40;;
14858;SDS011;7521;51.700;6.874;2023-06-26T04:36:59;7.83;;;6.20;;
14858;SDS011;7521;51.700;6.874;2023-06-26T04:40:05;10.53;;;7.93;;
14858;SDS011;7521;51.700;6.874;2023-06-26T04:43:10;9.73;;;8.00;;
14858;SDS011;7521;51.700;6.874;2023-06-26T04:46:16;11.17;;;8.07;;
14858;SDS011;7521;51.700;6.874;2023-06-26T04:49:21;8.30;;;7.50;;
14858;SDS011;7521;51.700;6.874;2023-06-26T04:52:26;11.67;;;7.90;;
14858;SDS011;7521;51.700;6.874;2023-06-26T04:55:31;11.73;;;8.53;;
14858;SDS011;7521;51.700;6.874;2023-06-26T04:58:37;11.27;;;8.47;;
14858;SDS011;7521;51.700;6.874;2023-06-26T05:01:43;11.10;;;8.23;;
14858;SDS011;7521;51.700;6.874;2023-06-26T05:04:52;14.47;;;9.07;;
14858;SDS011;7521;51.700;6.874;2023-06-26T05:07:58;10.47;;;9.30;;
14858;SDS011;7521;51.700;6.874;2023-06-26T05:11:03;9.70;;;8.70;;
14858;SDS011;7521;51.700;6.874;2023-06-26T05:14:08;13.68;;;8.52;;
14858;SDS011;7521;51.700;6.874;2023-06-26T05:17:14;9.47;;;7.33;;
14858;SDS011;7521;51.700;6.874;2023-06-26T05:20:19;9.20;;;7.67;;
14858;SDS011;7521;51.700;6.874;2023-06-26T05:23:24;10.27;;;7.03;;
14858;SDS011;7521;51.700;6.874;2023-06-26T05:26:30;9.23;;;6.23;;
14858;SDS011;7521;51.700;6.874;2023-06-26T05:29:35;11.53;;;6.80;;
14858;SDS011;7521;51.700;6.874;2023-06-26T05:32:41;9.50;;;6.37;;
14858;SDS011;7521;51.700;6.874;2023-06-26T05:35:47;9.07;;;6.03;;
14858;SDS011;7521;51.700;6.874;2023-06-26T05:38:53;7.30;;;6.40;;
14858;SDS011;7521;51.700;6.874;2023-06-26T05:41:58;9.50;;;6.53;;
14858;SDS011;7521;51.700;6.874;2023-06-26T05:45:03;9.70;;;6.40;;
14858;SDS011;7521;51.700;6.874;2023-06-26T05:48:09;10.33;;;6.23;;
14858;SDS011;7521;51.700;6.874;2023-06-26T05:51:14;7.38;;;5.78;;
14858;SDS011;7521;51.700;6.874;2023-06-26T05:54:19;7.97;;;6.00;;
14858;SDS011;7521;51.700;6.874;2023-06-26T05:57:24;10.53;;;6.40;;
14858;SDS011;7521;51.700;6.874;2023-06-26T06:00:30;10.67;;;5.43;;
14858;SDS011;7521;51.700;6.874;2023-06-26T06:03:35;8.97;;;5.80;;
14858;SDS011;7521;51.700;6.874;2023-06-26T06:06:40;7.67;;;5.20;;
14858;SDS011;7521;51.700;6.874;2023-06-26T06:09:45;10.67;;;5.63;;
14858;SDS011;7521;51.700;6.874;2023-06-26T06:12:50;7.43;;;5.77;;
14858;SDS011;7521;51.700;6.874;2023-06-26T06:15:57;10.60;;;5.47;;
14858;SDS011;7521;51.700;6.874;2023-06-26T06:19:02;8.37;;;5.47;;
14858;SDS011;7521;51.700;6.874;2023-06-26T06:22:08;10.23;;;6.03;;
14858;SDS011;7521;51.700;6.874;2023-06-26T06:25:13;10.10;;;5.13;;
14858;SDS011;7521;51.700;6.874;2023-06-26T06:28:19;15.03;;;6.33;;
14858;SDS011;7521;51.700;6.874;2023-06-26T06:31:24;12.27;;;5.70;;
14858;SDS011;7521;51.700;6.874;2023-06-26T06:34:29;15.53;;;7.07;;
14858;SDS011;7521;51.700;6.874;2023-06-26T06:37:35;14.52;;;5.93;;
14858;SDS011;7521;51.700;6.874;2023-06-26T06:40:40;15.37;;;5.93;;
14858;SDS011;7521;51.700;6.874;2023-06-26T06:43:45;15.55;;;6.32;;
14858;SDS011;7521;51.700;6.874;2023-06-26T06:46:50;12.37;;;6.20;;
14858;SDS011;7521;51.700;6.874;2023-06-26T06:49:55;9.73;;;5.90;;
14858;SDS011;7521;51.700;6.874;2023-06-26T06:53:01;11.73;;;5.87;;
14858;SDS011;7521;51.700;6.874;2023-06-26T06:56:06;15.57;;;5.77;;
14858;SDS011;7521;51.700;6.874;2023-06-26T06:59:11;14.00;;;5.60;;
14858;SDS011;7521;51.700;6.874;2023-06-26T07:02:17;14.47;;;6.17;;
14858;SDS011;7521;51.700;6.874;2023-06-26T07:05:22;13.10;;;6.27;;
14858;SDS011;7521;51.700;6.874;2023-06-26T07:08:27;11.50;;;5.80;;
14858;SDS011;7521;51.700;6.874;2023-06-26T07:11:32;10.03;;;5.90;;
14858;SDS011;7521;51.700;6.874;2023-06-26T07:14:38;12.27;;;5.75;;
14858;SDS011;7521;51.700;6.874;2023-06-26T07:17:44;12.57;;;6.70;;
14858;SDS011;7521;51.700;6.874;2023-06-26T07:20:49;12.00;;;5.13;;
14858;SDS011;7521;51.700;6.874;2023-06-26T07:23:54;11.90;;;6.50;;
14858;SDS011;7521;51.700;6.874;2023-06-26T07:26:59;12.53;;;5.67;;
14858;SDS011;7521;51.700;6.874;2023-06-26T07:30:05;14.30;;;5.50;;
14858;SDS011;7521;51.700;6.874;2023-06-26T07:33:11;13.60;;;6.10;;
14858;SDS011;7521;51.700;6.874;2023-06-26T07:36:16;10.23;;;5.90;;
14858;SDS011;7521;51.700;6.874;2023-06-26T07:39:21;14.07;;;5.87;;
14858;SDS011;7521;51.700;6.874;2023-06-26T07:42:26;13.27;;;6.30;;
14858;SDS011;7521;51.700;6.874;2023-06-26T07:45:31;15.13;;;6.57;;
14858;SDS011;7521;51.700;6.874;2023-06-26T07:48:37;12.10;;;6.38;;
14858;SDS011;7521;51.700;6.874;2023-06-26T07:51:42;14.03;;;6.80;;
14858;SDS011;7521;51.700;6.874;2023-06-26T07:54:47;12.70;;;5.37;;
14858;SDS011;7521;51.700;6.874;2023-06-26T07:57:52;12.60;;;6.00;;
14858;SDS011;7521;51.700;6.874;2023-06-26T08:00:58;13.37;;;5.77;;
14858;SDS011;7521;51.700;6.874;2023-06-26T08:04:03;11.17;;;6.03;;
14858;SDS011;7521;51.700;6.874;2023-06-26T08:07:08;11.60;;;5.33;;
14858;SDS011;7521;51.700;6.874;2023-06-26T08:10:14;10.73;;;5.47;;
14858;SDS011;7521;51.700;6.874;2023-06-26T08:13:19;10.60;;;5.60;;
14858;SDS011;7521;51.700;6.874;2023-06-26T08:16:24;14.83;;;5.43;;
14858;SDS011;7521;51.700;6.874;2023-06-26T08:19:29;16.57;;;5.33;;
14858;SDS011;7521;51.700;6.874;2023-06-26T08:22:35;9.05;;;3.80;;
14858;SDS011;7521;51.700;6.874;2023-06-26T08:25:40;11.52;;;4.60;;
14858;SDS011;7521;51.700;6.874;2023-06-26T08:28:45;9.50;;;4.07;;
14858;SDS011;7521;51.700;6.874;2023-06-26T08:31:50;8.50;;;3.63;;
14858;SDS011;7521;51.700;6.874;2023-06-26T08:34:55;16.37;;;4.10;;
14858;SDS011;7521;51.700;6.874;2023-06-26T08:38:00;11.63;;;4.50;;
14858;SDS011;7521;51.700;6.874;2023-06-26T08:41:09;10.33;;;3.47;;
14858;SDS011;7521;51.700;6.874;2023-06-26T08:44:14;8.00;;;3.63;;
14858;SDS011;7521;51.700;6.874;2023-06-26T08:47:19;8.93;;;4.00;;
14858;SDS011;7521;51.700;6.874;2023-06-26T08:50:24;6.67;;;3.50;;
14858;SDS011;7521;51.700;6.874;2023-06-26T08:56:41;6.30;;;3.17;;
14858;SDS011;7521;51.700;6.874;2023-06-26T08:59:47;9.13;;;3.50;;
14858;SDS011;7521;51.700;6.874;2023-06-26T09:02:52;7.70;;;3.33;;
14858;SDS011;7521;51.700;6.874;2023-06-26T09:05:59;6.70;;;3.10;;
14858;SDS011;7521;51.700;6.874;2023-06-26T09:09:04;5.53;;;3.17;;
14858;SDS011;7521;51.700;6.874;2023-06-26T09:12:09;7.03;;;3.53;;
14858;SDS011;7521;51.700;6.874;2023-06-26T09:15:15;6.40;;;3.13;;
14858;SDS011;7521;51.700;6.874;2023-06-26T09:18:20;6.30;;;3.10;;
14858;SDS011;7521;51.700;6.874;2023-06-26T09:21:26;7.70;;;3.57;;
14858;SDS011;7521;51.700;6.874;2023-06-26T09:24:31;8.03;;;3.50;;
14858;SDS011;7521;51.700;6.874;2023-06-26T09:27:36;6.03;;;3.03;;
14858;SDS011;7521;51.700;6.874;2023-06-26T09:30:42;6.17;;;3.30;;
14858;SDS011;7521;51.700;6.874;2023-06-26T09:33:47;8.55;;;3.65;;
14858;SDS011;7521;51.700;6.874;2023-06-26T09:36:53;5.23;;;3.40;;
14858;SDS011;7521;51.700;6.874;2023-06-26T09:39:58;5.63;;;2.90;;
14858;SDS011;7521;51.700;6.874;2023-06-26T09:43:04;6.43;;;3.47;;
14858;SDS011;7521;51.700;6.874;2023-06-26T09:46:09;6.83;;;3.00;;
14858;SDS011;7521;51.700;6.874;2023-06-26T09:49:15;5.80;;;3.07;;
14858;SDS011;7521;51.700;6.874;2023-06-26T09:52:20;6.70;;;3.03;;
14858;SDS011;7521;51.700;6.874;2023-06-26T09:55:25;9.70;;;3.77;;
14858;SDS011;7521;51.700;6.874;2023-06-26T09:58:30;7.63;;;2.83;;
14858;SDS011;7521;51.700;6.874;2023-06-26T10:01:39;5.37;;;2.73;;
14858;SDS011;7521;51.700;6.874;2023-06-26T10:04:45;5.27;;;2.80;;
14858;SDS011;7521;51.700;6.874;2023-06-26T10:07:50;7.03;;;3.43;;
14858;SDS011;7521;51.700;6.874;2023-06-26T10:10:57;7.50;;;3.60;;
14858;SDS011;7521;51.700;6.874;2023-06-26T10:14:03;4.83;;;2.90;;
14858;SDS011;7521;51.700;6.874;2023-06-26T10:17:09;12.63;;;4.10;;
14858;SDS011;7521;51.700;6.874;2023-06-26T10:20:15;4.83;;;3.10;;
14858;SDS011;7521;51.700;6.874;2023-06-26T10:23:20;5.43;;;3.00;;
14858;SDS011;7521;51.700;6.874;2023-06-26T10:26:27;5.07;;;2.90;;
14858;SDS011;7521;51.700;6.874;2023-06-26T10:29:33;4.93;;;2.93;;
14858;SDS011;7521;51.700;6.874;2023-06-26T10:32:39;8.83;;;2.93;;
14858;SDS011;7521;51.700;6.874;2023-06-26T10:35:45;4.43;;;2.63;;
14858;SDS011;7521;51.700;6.874;2023-06-26T10:38:51;3.57;;;2.53;;
14858;SDS011;7521;51.700;6.874;2023-06-26T10:41:57;7.40;;;3.27;;
14858;SDS011;7521;51.700;6.874;2023-06-26T10:45:16;4.27;;;2.87;;
14858;SDS011;7521;51.700;6.874;2023-06-26T10:48:22;6.50;;;3.10;;
14858;SDS011;7521;51.700;6.874;2023-06-26T10:51:27;4.80;;;2.73;;
14858;SDS011;7521;51.700;6.874;2023-06-26T10:54:33;4.27;;;2.47;;
14858;SDS011;7521;51.700;6.874;2023-06-26T10:57:38;3.53;;;2.03;;
14858;SDS011;7521;51.700;6.874;2023-06-26T11:00:49;6.63;;;2.13;;
14858;SDS011;7521;51.700;6.874;2023-06-26T11:04:03;2.87;;;1.67;;
14858;SDS011;7521;51.700;6.874;2023-06-26T11:10:26;5.50;;;1.80;;
14858;SDS011;7521;51.700;6.874;2023-06-26T11:13:31;5.03;;;1.75;;
14858;SDS011;7521;51.700;6.874;2023-06-26T11:16:45;5.27;;;1.90;;
14858;SDS011;7521;51.700;6.874;2023-06-26T11:19:51;4.03;;;1.77;;
14858;SDS011;7521;51.700;6.874;2023-06-26T11:23:04;4.50;;;1.80;;
14858;SDS011;7521;51.700;6.874;2023-06-26T11:26:20;8.80;;;2.00;;
14858;SDS011;7521;51.700;6.874;2023-06-26T11:29:29;6.43;;;1.90;;
14858;SDS011;7521;51.700;6.874;2023-06-26T11:32:34;4.50;;;1.80;;
14858;SDS011;7521;51.700;6.874;2023-06-26T11:35:42;3.80;;;1.70;;
14858;SDS011;7521;51.700;6.874;2023-06-26T11:38:52;2.30;;;1.30;;
14858;SDS011;7521;51.700;6.874;2023-06-26T11:41:57;3.67;;;1.57;;
14858;SDS011;7521;51.700;6.874;2023-06-26T11:45:04;5.03;;;1.33;;
14858;SDS011;7521;51.700;6.874;2023-06-26T11:48:09;4.73;;;1.30;;
14858;SDS011;7521;51.700;6.874;2023-06-26T11:51:16;2.73;;;1.27;;
14858;SDS011;7521;51.700;6.874;2023-06-26T11:54:24;2.05;;;1.13;;
14858;SDS011;7521;51.700;6.874;2023-06-26T11:57:30;2.27;;;1.00;;
14858;SDS011;7521;51.700;6.874;2023-06-26T12:00:40;3.40;;;1.13;;
14858;SDS011;7521;51.700;6.874;2023-06-26T12:03:46;1.30;;;0.97;;
14858;SDS011;7521;51.700;6.874;2023-06-26T12:06:52;4.13;;;1.20;;
14858;SDS011;7521;51.700;6.874;2023-06-26T12:10:02;3.83;;;1.00;;
14858;SDS011;7521;51.700;6.874;2023-06-26T12:13:07;4.60;;;1.27;;
14858;SDS011;7521;51.700;6.874;2023-06-26T12:16:14;3.63;;;1.30;;
14858;SDS011;7521;51.700;6.874;2023-06-26T12:19:23;4.63;;;1.40;;
14858;SDS011;7521;51.700;6.874;2023-06-26T12:22:33;3.73;;;1.33;;
14858;SDS011;7521;51.700;6.874;2023-06-26T12:25:39;3.40;;;1.40;;
14858;SDS011;7521;51.700;6.874;2023-06-26T12:28:47;6.20;;;1.73;;
14858;SDS011;7521;51.700;6.874;2023-06-26T12:31:52;4.03;;;1.57;;
14858;SDS011;7521;51.700;6.874;2023-06-26T12:34:57;5.53;;;1.70;;
14858;SDS011;7521;51.700;6.874;2023-06-26T12:38:05;3.43;;;1.60;;
14858;SDS011;7521;51.700;6.874;2023-06-26T12:41:14;4.17;;;1.73;;
14858;SDS011;7521;51.700;6.874;2023-06-26T12:44:27;7.37;;;1.90;;
14858;SDS011;7521;51.700;6.874;2023-06-26T12:47:32;6.07;;;1.80;;
14858;SDS011;7521;51.700;6.874;2023-06-26T12:50:43;4.97;;;1.30;;
14858;SDS011;7521;51.700;6.874;2023-06-26T12:53:48;7.23;;;1.97;;
14858;SDS011;7521;51.700;6.874;2023-06-26T12:56:53;3.03;;;1.30;;
14858;SDS011;7521;51.700;6.874;2023-06-26T12:59:59;2.03;;;1.20;;
14858;SDS011;7521;51.700;6.874;2023-06-26T13:03:05;5.80;;;1.30;;
14858;SDS011;7521;51.700;6.874;2023-06-26T13:06:11;2.10;;;1.47;;
14858;SDS011;7521;51.700;6.874;2023-06-26T13:09:17;3.93;;;1.40;;
14858;SDS011;7521;51.700;6.874;2023-06-26T13:12:22;4.57;;;1.40;;
14858;SDS011;7521;51.700;6.874;2023-06-26T13:15:27;5.07;;;1.52;;
14858;SDS011;7521;51.700;6.874;2023-06-26T13:18:33;6.10;;;1.53;;
14858;SDS011;7521;51.700;6.874;2023-06-26T13:21:38;3.20;;;1.30;;
14858;SDS011;7521;51.700;6.874;2023-06-26T13:24:43;2.38;;;1.30;;
14858;SDS011;7521;51.700;6.874;2023-06-26T13:27:48;7.72;;;1.67;;
14858;SDS011;7521;51.700;6.874;2023-06-26T13:30:54;7.73;;;1.80;;
14858;SDS011;7521;51.700;6.874;2023-06-26T13:33:59;4.03;;;1.20;;
14858;SDS011;7521;51.700;6.874;2023-06-26T13:37:05;4.93;;;1.40;;
14858;SDS011;7521;51.700;6.874;2023-06-26T13:40:11;5.07;;;1.37;;
14858;SDS011;7521;51.700;6.874;2023-06-26T13:43:16;3.30;;;1.33;;
14858;SDS011;7521;51.700;6.874;2023-06-26T13:46:22;4.50;;;1.92;;
14858;SDS011;7521;51.700;6.874;2023-06-26T13:49:27;2.67;;;1.27;;
14858;SDS011;7521;51.700;6.874;2023-06-26T13:52:32;5.93;;;1.20;;
14858;SDS011;7521;51.700;6.874;2023-06-26T13:55:37;4.30;;;1.02;;
14858;SDS011;7521;51.700;6.874;2023-06-26T13:58:43;5.57;;;1.33;;
14858;SDS011;7521;51.700;6.874;2023-06-26T14:01:49;2.77;;;1.13;;
14858;SDS011;7521;51.700;6.874;2023-06-26T14:04:54;4.53;;;1.40;;
14858;SDS011;7521;51.700;6.874;2023-06-26T14:08:02;4.63;;;1.33;;
14858;SDS011;7521;51.700;6.874;2023-06-26T14:11:07;3.53;;;1.27;;
14858;SDS011;7521;51.700;6.874;2023-06-26T14:14:13;5.80;;;1.17;;
14858;SDS011;7521;51.700;6.874;2023-06-26T14:17:18;3.73;;;1.10;;
14858;SDS011;7521;51.700;6.874;2023-06-26T14:20:23;5.70;;;0.90;;
14858;SDS011;7521;51.700;6.874;2023-06-26T14:23:29;4.43;;;1.40;;
14858;SDS011;7521;51.700;6.874;2023-06-26T14:26:34;2.60;;;1.20;;
14858;SDS011;7521;51.700;6.874;2023-06-26T14:29:40;5.10;;;0.88;;
14858;SDS011;7521;51.700;6.874;2023-06-26T14:32:45;2.87;;;1.13;;
14858;SDS011;7521;51.700;6.874;2023-06-26T14:35:50;3.07;;;0.93;;
14858;SDS011;7521;51.700;6.874;2023-06-26T14:38:55;4.67;;;1.50;;
14858;SDS011;7521;51.700;6.874;2023-06-26T14:42:00;2.63;;;1.30;;
14858;SDS011;7521;51.700;6.874;2023-06-26T14:45:06;2.00;;;1.13;;
14858;SDS011;7521;51.700;6.874;2023-06-26T14:48:11;5.13;;;1.03;;
14858;SDS011;7521;51.700;6.874;2023-06-26T14:51:16;4.25;;;1.10;;
14858;SDS011;7521;51.700;6.874;2023-06-26T14:54:21;3.47;;;1.30;;
14858;SDS011;7521;51.700;6.874;2023-06-26T14:57:26;3.57;;;1.20;;
14858;SDS011;7521;51.700;6.874;2023-06-26T15:00:32;2.83;;;1.33;;
14858;SDS011;7521;51.700;6.874;2023-06-26T15:03:37;4.00;;;1.40;;
14858;SDS011;7521;51.700;6.874;2023-06-26T15:06:42;2.50;;;1.00;;
14858;SDS011;7521;51.700;6.874;2023-06-26T15:09:47;3.20;;;1.10;;
14858;SDS011;7521;51.700;6.874;2023-06-26T15:12:52;3.33;;;0.90;;
14858;SDS011;7521;51.700;6.874;2023-06-26T15:15:57;2.17;;;1.10;;
14858;SDS011;7521;51.700;6.874;2023-06-26T15:19:03;2.42;;;0.85;;
14858;SDS011;7521;51.700;6.874;2023-06-26T15:22:08;3.40;;;0.97;;
14858;SDS011;7521;51.700;6.874;2023-06-26T15:25:13;4.90;;;0.90;;
14858;SDS011;7521;51.700;6.874;2023-06-26T15:28:18;2.33;;;1.08;;
14858;SDS011;7521;51.700;6.874;2023-06-26T15:31:23;1.13;;;0.83;;
14858;SDS011;7521;51.700;6.874;2023-06-26T15:34:28;3.77;;;1.00;;
14858;SDS011;7521;51.700;6.874;2023-06-26T15:37:33;2.57;;;0.97;;
14858;SDS011;7521;51.700;6.874;2023-06-26T15:40:39;2.73;;;0.93;;
14858;SDS011;7521;51.700;6.874;2023-06-26T15:43:44;2.47;;;0.90;;
14858;SDS011;7521;51.700;6.874;2023-06-26T15:46:49;3.97;;;0.60;;
14858;SDS011;7521;51.700;6.874;2023-06-26T15:49:55;3.43;;;1.00;;
14858;SDS011;7521;51.700;6.874;2023-06-26T15:53:01;4.43;;;1.10;;
14858;SDS011;7521;51.700;6.874;2023-06-26T15:56:07;2.40;;;1.30;;
14858;SDS011;7521;51.700;6.874;2023-06-26T15:59:13;3.83;;;0.90;;
14858;SDS011;7521;51.700;6.874;2023-06-26T16:02:23;2.80;;;1.00;;
14858;SDS011;7521;51.700;6.874;2023-06-26T16:05:28;3.92;;;0.85;;
14858;SDS011;7521;51.700;6.874;2023-06-26T16:08:33;3.47;;;0.80;;
14858;SDS011;7521;51.700;6.874;2023-06-26T16:11:38;2.87;;;0.87;;
14858;SDS011;7521;51.700;6.874;2023-06-26T16:14:44;4.60;;;1.03;;
14858;SDS011;7521;51.700;6.874;2023-06-26T16:17:49;2.40;;;1.07;;
14858;SDS011;7521;51.700;6.874;2023-06-26T16:20:54;7.33;;;0.90;;
14858;SDS011;7521;51.700;6.874;2023-06-26T16:23:59;2.43;;;1.00;;
14858;SDS011;7521;51.700;6.874;2023-06-26T16:27:05;2.53;;;1.00;;
14858;SDS011;7521;51.700;6.874;2023-06-26T16:30:10;1.80;;;0.93;;
14858;SDS011;7521;51.700;6.874;2023-06-26T16:33:16;1.40;;;0.77;;
14858;SDS011;7521;51.700;6.874;2023-06-26T16:36:21;3.30;;;0.80;;
14858;SDS011;7521;51.700;6.874;2023-06-26T16:39:26;4.93;;;1.00;;
14858;SDS011;7521;51.700;6.874;2023-06-26T16:42:31;3.53;;;1.13;;
14858;SDS011;7521;51.700;6.874;2023-06-26T16:45:36;2.23;;;1.10;;
14858;SDS011;7521;51.700;6.874;2023-06-26T16:48:41;3.57;;;0.90;;
14858;SDS011;7521;51.700;6.874;2023-06-26T16:51:47;3.20;;;0.97;;
14858;SDS011;7521;51.700;6.874;2023-06-26T16:54:52;4.53;;;1.00;;
14858;SDS011;7521;51.700;6.874;2023-06-26T16:57:57;1.20;;;0.77;;
14858;SDS011;7521;51.700;6.874;2023-06-26T17:01:02;3.37;;;1.20;;
14858;SDS011;7521;51.700;6.874;2023-06-26T17:04:07;2.27;;;1.00;;
14858;SDS011;7521;51.700;6.874;2023-06-26T17:07:12;4.43;;;1.23;;
14858;SDS011;7521;51.700;6.874;2023-06-26T17:10:18;5.60;;;1.03;;
14858;SDS011;7521;51.700;6.874;2023-06-26T17:13:23;1.20;;;0.65;;
14858;SDS011;7521;51.700;6.874;2023-06-26T17:16:28;2.03;;;1.00;;
14858;SDS011;7521;51.700;6.874;2023-06-26T17:19:34;4.73;;;1.10;;
14858;SDS011;7521;51.700;6.874;2023-06-26T17:22:40;2.00;;;0.90;;
14858;SDS011;7521;51.700;6.874;2023-06-26T17:25:48;1.93;;;1.00;;
14858;SDS011;7521;51.700;6.874;2023-06-26T17:28:53;2.20;;;1.07;;
14858;SDS011;7521;51.700;6.874;2023-06-26T17:31:58;2.10;;;1.10;;
14858;SDS011;7521;51.700;6.874;2023-06-26T17:35:04;1.07;;;0.60;;
14858;SDS011;7521;51.700;6.874;2023-06-26T17:38:12;4.23;;;1.20;;
14858;SDS011;7521;51.700;6.874;2023-06-26T17:41:17;2.77;;;1.00;;
14858;SDS011;7521;51.700;6.874;2023-06-26T17:44:22;1.80;;;0.73;;
14858;SDS011;7521;51.700;6.874;2023-06-26T17:47:32;3.47;;;1.00;;
14858;SDS011;7521;51.700;6.874;2023-06-26T17:50:37;2.28;;;1.00;;
14858;SDS011;7521;51.700;6.874;2023-06-26T17:53:42;1.90;;;1.00;;
14858;SDS011;7521;51.700;6.874;2023-06-26T17:56:47;2.67;;;1.30;;
14858;SDS011;7521;51.700;6.874;2023-06-26T17:59:53;1.93;;;1.20;;
14858;SDS011;7521;51.700;6.874;2023-06-26T18:02:59;1.50;;;0.80;;
14858;SDS011;7521;51.700;6.874;2023-06-26T18:06:04;1.65;;;0.82;;
14858;SDS011;7521;51.700;6.874;2023-06-26T18:09:09;1.83;;;1.00;;
14858;SDS011;7521;51.700;6.874;2023-06-26T18:12:14;5.38;;;1.15;;
14858;SDS011;7521;51.700;6.874;2023-06-26T18:15:19;2.50;;;0.90;;
14858;SDS011;7521;51.700;6.874;2023-06-26T18:18:25;3.23;;;1.03;;
14858;SDS011;7521;51.700;6.874;2023-06-26T18:21:30;3.67;;;1.20;;
14858;SDS011;7521;51.700;6.874;2023-06-26T18:24:35;2.17;;;0.90;;
14858;SDS011;7521;51.700;6.874;2023-06-26T18:27:40;1.57;;;0.80;;
14858;SDS011;7521;51.700;6.874;2023-06-26T18:30:45;4.17;;;0.87;;
14858;SDS011;7521;51.700;6.874;2023-06-26T18:33:51;4.33;;;0.80;;
14858;SDS011;7521;51.700;6.874;2023-06-26T18:36:56;2.07;;;1.00;;
14858;SDS011;7521;51.700;6.874;2023-06-26T18:40:03;1.73;;;0.77;;
14858;SDS011;7521;51.700;6.874;2023-06-26T18:43:11;1.43;;;0.80;;
14858;SDS011;7521;51.700;6.874;2023-06-26T18:46:17;1.73;;;0.80;;
14858;SDS011;7521;51.700;6.874;2023-06-26T18:49:22;1.77;;;1.00;;
14858;SDS011;7521;51.700;6.874;2023-06-26T18:52:27;2.72;;;1.23;;
14858;SDS011;7521;51.700;6.874;2023-06-26T18:55:32;2.23;;;1.17;;
14858;SDS011;7521;51.700;6.874;2023-06-26T18:58:38;1.57;;;0.80;;
14858;SDS011;7521;51.700;6.874;2023-06-26T19:01:43;5.47;;;0.95;;
14858;SDS011;7521;51.700;6.874;2023-06-26T19:04:48;3.10;;;0.90;;